createdAt,value
2018-11-12T00:00:30.599Z,2.47
2018-11-12T00:02:59.604Z,2.23
2018-11-12T00:05:28.273Z,2.10
2018-11-12T00:07:56.715Z,2.33
2018-11-12T00:10:25.429Z,3.10
2018-11-12T00:12:54.034Z,2.00
2018-11-12T00:15:22.507Z,3.77
2018-11-12T00:17:50.939Z,7.33
2018-11-12T00:20:19.392Z,2.80
2018-11-12T00:22:48.069Z,2.40
2018-11-12T00:25:16.556Z,4.07
2018-11-12T00:27:45.089Z,4.73
2018-11-12T00:30:15.340Z,4.77
2018-11-12T00:32:44.649Z,2.63
2018-11-12T00:35:13.302Z,6.63
2018-11-12T00:37:42.720Z,2.50
2018-11-12T00:40:13.773Z,3.40
2018-11-12T00:42:42.749Z,6.30
2018-11-12T00:45:11.644Z,3.20
2018-11-12T00:47:40.064Z,2.43
2018-11-12T00:50:09.715Z,4.33
2018-11-12T00:52:38.417Z,2.70
2018-11-12T00:55:08.117Z,2.57
2018-11-12T00:57:36.725Z,2.03
2018-11-12T01:00:07.197Z,2.27
2018-11-12T01:02:35.599Z,2.73
2018-11-12T01:05:04.080Z,3.13
2018-11-12T01:07:32.543Z,3.70
2018-11-12T01:10:00.961Z,2.17
2018-11-12T01:12:29.405Z,4.80
2018-11-12T01:14:57.824Z,3.73
2018-11-12T01:17:26.239Z,2.17
2018-11-12T01:19:54.632Z,4.70
2018-11-12T01:22:23.032Z,3.73
2018-11-12T01:24:51.462Z,5.10
2018-11-12T01:27:20.128Z,7.47
2018-11-12T01:29:48.562Z,4.97
2018-11-12T01:32:16.979Z,2.57
2018-11-12T01:34:46.284Z,2.20
2018-11-12T01:37:14.705Z,4.20
2018-11-12T01:39:43.112Z,3.17
2018-11-12T01:42:11.594Z,5.40
2018-11-12T01:44:39.949Z,2.80
2018-11-12T01:47:08.376Z,3.67
2018-11-12T01:49:36.832Z,1.93
2018-11-12T01:52:12.472Z,8.50
2018-11-12T01:54:40.868Z,3.43
2018-11-12T01:57:09.282Z,2.10
2018-11-12T01:59:37.744Z,3.40
2018-11-12T02:02:06.696Z,2.30
2018-11-12T02:04:35.168Z,2.80
2018-11-12T02:07:03.590Z,3.63
2018-11-12T02:09:32.020Z,2.23
2018-11-12T02:12:00.452Z,3.70
2018-11-12T02:14:28.972Z,4.70
2018-11-12T02:16:57.360Z,4.47
2018-11-12T02:19:25.748Z,3.43
2018-11-12T02:21:54.256Z,3.60
2018-11-12T02:24:22.665Z,3.57
2018-11-12T02:26:51.243Z,2.90
2018-11-12T02:29:19.650Z,4.63
2018-11-12T02:31:48.106Z,6.67
2018-11-12T02:34:16.548Z,5.80
2018-11-12T02:36:44.996Z,8.93
2018-11-12T02:39:13.461Z,5.50
2018-11-12T02:41:44.894Z,3.27
2018-11-12T02:44:13.994Z,3.80
2018-11-12T02:46:42.386Z,5.57
2018-11-12T02:51:45.542Z,3.43
2018-11-12T02:54:13.945Z,2.60
2018-11-12T02:56:42.361Z,3.60
2018-11-12T02:59:10.873Z,6.13
2018-11-12T03:01:39.307Z,5.63
2018-11-12T03:04:07.741Z,8.10
2018-11-12T03:06:36.173Z,4.50
2018-11-12T03:09:09.189Z,5.37
2018-11-12T03:11:37.613Z,5.73
2018-11-12T03:14:06.213Z,3.63
2018-11-12T03:16:35.101Z,5.13
2018-11-12T03:19:03.565Z,6.13
2018-11-12T03:21:31.960Z,3.50
2018-11-12T03:24:00.448Z,8.23
2018-11-12T03:26:29.403Z,2.60
2018-11-12T03:28:57.945Z,3.67
2018-11-12T03:31:26.332Z,4.70
2018-11-12T03:33:54.741Z,4.03
2018-11-12T03:36:23.154Z,6.97
2018-11-12T03:38:51.533Z,3.17
2018-11-12T03:41:19.983Z,5.50
2018-11-12T03:43:48.364Z,6.17
2018-11-12T03:46:16.762Z,6.00
2018-11-12T03:48:45.164Z,4.93
2018-11-12T03:51:13.569Z,7.70
2018-11-12T03:53:41.928Z,5.87
2018-11-12T03:56:10.351Z,2.93
2018-11-12T03:58:38.732Z,3.73
2018-11-12T04:01:07.180Z,5.70
2018-11-12T04:03:35.569Z,5.77
2018-11-12T04:06:03.977Z,5.10
2018-11-12T04:08:32.355Z,5.53
2018-11-12T04:11:00.795Z,4.90
2018-11-12T04:13:29.314Z,5.23
2018-11-12T04:15:57.708Z,6.93
2018-11-12T04:18:26.132Z,5.33
2018-11-12T04:20:54.609Z,7.47
2018-11-12T04:23:23.030Z,5.40
2018-11-12T04:25:51.425Z,8.00
2018-11-12T04:28:19.876Z,5.93
2018-11-12T04:30:48.304Z,4.47
2018-11-12T04:33:16.721Z,5.27
2018-11-12T04:35:45.124Z,4.20
2018-11-12T04:38:13.538Z,7.73
2018-11-12T04:40:41.950Z,3.60
2018-11-12T04:43:10.345Z,4.70
2018-11-12T04:45:38.908Z,6.93
2018-11-12T04:48:07.238Z,5.23
2018-11-12T04:50:35.641Z,3.27
2018-11-12T04:53:04.075Z,6.20
2018-11-12T04:55:32.491Z,5.57
2018-11-12T04:58:00.868Z,8.40
2018-11-12T05:00:29.696Z,3.90
2018-11-12T05:02:58.154Z,5.30
2018-11-12T05:05:27.752Z,9.33
2018-11-12T05:07:56.148Z,6.93
2018-11-12T05:10:25.653Z,7.60
2018-11-12T05:12:54.820Z,4.73
2018-11-12T05:15:24.253Z,6.47
2018-11-12T05:17:52.648Z,7.00
2018-11-12T05:20:23.451Z,5.53
2018-11-12T05:22:51.877Z,5.10
2018-11-12T05:25:20.260Z,5.17
2018-11-12T05:27:48.669Z,5.30
2018-11-12T05:30:19.326Z,9.53
2018-11-12T05:32:47.818Z,5.43
2018-11-12T05:35:17.716Z,6.07
2018-11-12T05:37:46.382Z,6.47
2018-11-12T05:40:19.389Z,6.47
2018-11-12T05:42:47.803Z,6.73
2018-11-12T05:45:17.470Z,8.60
2018-11-12T05:47:46.458Z,5.57
2018-11-12T05:50:16.901Z,7.77
2018-11-12T05:52:46.612Z,10.27
2018-11-12T05:55:16.516Z,5.63
2018-11-12T05:57:45.517Z,9.47
2018-11-12T06:00:15.288Z,5.30
2018-11-12T06:02:43.689Z,10.93
2018-11-12T06:05:13.246Z,5.27
2018-11-12T06:07:41.776Z,9.00
2018-11-12T06:10:13.728Z,8.70
2018-11-12T06:12:42.521Z,10.13
2018-11-12T06:15:11.645Z,9.20
2018-11-12T06:17:40.716Z,9.23
2018-11-12T06:20:12.639Z,9.27
2018-11-12T06:22:41.165Z,16.77
2018-11-12T06:25:11.019Z,10.37
2018-11-12T06:27:39.433Z,11.13
2018-11-12T06:30:12.643Z,14.03
2018-11-12T06:32:41.057Z,10.40
2018-11-12T06:35:10.829Z,17.83
2018-11-12T06:37:39.225Z,14.00
2018-11-12T06:40:09.670Z,12.90
2018-11-12T06:42:38.604Z,14.20
2018-11-12T06:45:09.668Z,17.07
2018-11-12T06:47:38.095Z,21.70
2018-11-12T06:50:08.881Z,21.87
2018-11-12T06:52:37.511Z,26.83
2018-11-12T06:55:06.755Z,27.33
2018-11-12T06:57:35.193Z,24.10
2018-11-12T07:00:04.186Z,24.87
2018-11-12T07:02:36.607Z,22.00
2018-11-12T07:05:06.916Z,25.50
2018-11-12T07:07:35.409Z,24.10
2018-11-12T07:10:04.761Z,24.70
2018-11-12T07:12:33.224Z,22.93
2018-11-12T07:15:01.636Z,24.90
2018-11-12T07:17:30.002Z,27.77
2018-11-12T07:19:58.413Z,27.20
2018-11-12T07:22:26.809Z,28.83
2018-11-12T07:24:55.209Z,26.30
2018-11-12T07:27:23.595Z,28.70
2018-11-12T07:29:52.618Z,25.20
2018-11-12T07:32:21.040Z,23.60
2018-11-12T07:34:50.304Z,28.03
2018-11-12T07:37:18.866Z,26.37
2018-11-12T07:39:47.368Z,23.13
2018-11-12T07:42:15.934Z,27.17
2018-11-12T07:44:44.350Z,28.77
2018-11-12T07:47:12.769Z,22.50
2018-11-12T07:49:41.181Z,30.20
2018-11-12T07:52:09.585Z,28.83
2018-11-12T07:54:37.978Z,30.30
2018-11-12T07:57:06.432Z,29.47
2018-11-12T07:59:34.838Z,30.83
2018-11-12T08:02:04.108Z,24.77
2018-11-12T08:04:32.501Z,30.77
2018-11-12T08:07:00.910Z,25.43
2018-11-12T08:09:29.379Z,25.13
2018-11-12T08:11:57.745Z,21.67
2018-11-12T08:14:26.249Z,25.63
2018-11-12T08:16:54.606Z,21.40
2018-11-12T08:19:23.015Z,29.43
2018-11-12T08:21:51.511Z,21.57
2018-11-12T08:24:20.042Z,22.43
2018-11-12T08:26:48.914Z,26.37
2018-11-12T08:29:17.335Z,23.10
2018-11-12T08:31:45.717Z,20.13
2018-11-12T08:34:14.141Z,22.53
2018-11-12T08:36:42.593Z,21.37
2018-11-12T08:39:11.053Z,25.30
2018-11-12T08:41:39.405Z,20.30
2018-11-12T08:44:08.086Z,17.07
2018-11-12T08:46:36.534Z,17.77
2018-11-12T08:49:05.482Z,23.97
2018-11-12T08:51:33.784Z,40.83
2018-11-12T08:54:02.908Z,41.37
2018-11-12T08:56:31.350Z,48.67
2018-11-12T08:59:00.518Z,52.80
2018-11-12T09:01:28.996Z,66.57
2018-11-12T09:03:57.504Z,69.17
2018-11-12T09:06:26.068Z,59.13
2018-11-12T09:08:54.476Z,61.80
2018-11-12T09:11:22.956Z,58.13
2018-11-12T09:13:51.384Z,53.63
2018-11-12T09:16:19.798Z,52.47
2018-11-12T09:18:48.213Z,45.97
2018-11-12T09:21:16.609Z,48.43
2018-11-12T09:23:45.001Z,50.27
2018-11-12T09:26:13.471Z,49.07
2018-11-12T09:28:42.021Z,49.20
2018-11-12T09:31:11.673Z,42.13
2018-11-12T09:33:38.880Z,42.30
2018-11-12T09:36:07.296Z,42.27
2018-11-12T09:38:35.776Z,42.00
2018-11-12T09:41:04.353Z,31.50
2018-11-12T09:43:32.832Z,28.03
2018-11-12T09:46:01.451Z,27.90
2018-11-12T09:48:29.877Z,29.90
2018-11-12T09:50:59.282Z,26.73
2018-11-12T09:53:27.769Z,17.50
2018-11-12T09:55:56.169Z,18.33
2018-11-12T09:58:24.597Z,12.73
2018-11-12T10:00:53.207Z,20.93
2018-11-12T10:03:27.760Z,21.33
2018-11-12T10:05:58.482Z,28.83
2018-11-12T10:08:27.145Z,30.73
2018-11-12T10:10:59.199Z,31.13
2018-11-12T10:13:28.179Z,26.73
2018-11-12T10:15:58.020Z,28.47
2018-11-12T10:18:23.581Z,29.93
2018-11-12T10:20:52.031Z,30.00
2018-11-12T10:23:21.128Z,32.60
2018-11-12T10:25:49.616Z,27.97
2018-11-12T10:28:19.216Z,28.67
2018-11-12T10:30:48.376Z,26.70
2018-11-12T10:33:16.804Z,28.00
2018-11-12T10:35:45.224Z,25.57
2018-11-12T10:38:13.635Z,23.53
2018-11-12T10:40:42.062Z,20.90
2018-11-12T10:43:11.061Z,23.60
2018-11-12T10:45:39.504Z,21.40
2018-11-12T10:48:08.435Z,20.67
2018-11-12T10:50:37.080Z,25.60
2018-11-12T10:53:06.024Z,21.73
2018-11-12T10:55:34.594Z,18.83
2018-11-12T10:58:02.838Z,23.67
2018-11-12T11:00:38.512Z,21.73
2018-11-12T11:03:15.720Z,23.13
2018-11-12T11:05:45.359Z,25.50
2018-11-12T11:08:13.793Z,19.60
2018-11-12T11:10:42.184Z,20.13
2018-11-12T11:13:10.585Z,28.07
2018-11-12T11:15:39.455Z,19.73
2018-11-12T11:18:08.094Z,22.60
2018-11-12T11:20:36.504Z,18.57
2018-11-12T11:23:05.217Z,17.47
2018-11-12T11:25:33.725Z,17.30
2018-11-12T11:28:02.528Z,20.10
2018-11-12T11:30:30.916Z,15.40
2018-11-12T11:32:59.398Z,27.00
2018-11-12T11:35:27.813Z,19.53
2018-11-12T11:37:56.271Z,19.90
2018-11-12T11:40:26.029Z,16.63
2018-11-12T11:42:54.328Z,18.17
2018-11-12T11:45:23.147Z,14.20
2018-11-12T11:47:52.449Z,19.60
2018-11-12T11:50:22.353Z,20.97
2018-11-12T11:52:50.664Z,17.57
2018-11-12T11:55:23.272Z,22.30
2018-11-12T11:57:52.084Z,20.60
2018-11-12T12:00:24.841Z,21.27
2018-11-12T12:02:54.169Z,25.27
2018-11-12T12:05:23.244Z,34.23
2018-11-12T12:07:52.447Z,31.57
2018-11-12T12:10:20.925Z,27.23
2018-11-12T12:12:50.408Z,26.17
2018-11-12T12:15:19.925Z,29.20
2018-11-12T12:17:48.437Z,26.40
2018-11-12T12:20:24.600Z,29.53
2018-11-12T12:22:53.656Z,27.97
2018-11-12T12:25:22.103Z,27.13
2018-11-12T12:27:50.732Z,31.43
2018-11-12T12:30:20.536Z,28.57
2018-11-12T12:32:50.100Z,36.40
2018-11-12T12:35:18.506Z,35.13
2018-11-12T12:37:47.304Z,39.90
2018-11-12T12:40:17.213Z,37.67
2018-11-12T12:42:45.616Z,35.30
2018-11-12T12:45:16.473Z,42.10
2018-11-12T12:47:45.344Z,39.13
2018-11-12T12:50:14.824Z,37.70
2018-11-12T12:52:43.272Z,41.23
2018-11-12T12:55:12.741Z,37.27
2018-11-12T12:57:42.020Z,37.23
2018-11-12T13:00:13.267Z,41.00
2018-11-12T13:02:41.933Z,47.63
2018-11-12T13:05:10.521Z,43.97
2018-11-12T13:07:39.329Z,40.47
2018-11-12T13:10:09.709Z,37.07
2018-11-12T13:12:38.196Z,35.40
2018-11-12T13:15:08.915Z,33.30
2018-11-12T13:17:37.369Z,28.33
2018-11-12T13:20:07.048Z,27.33
2018-11-12T13:22:35.445Z,18.07
2018-11-12T13:25:03.901Z,18.03
2018-11-12T13:27:32.295Z,14.40
2018-11-12T13:30:01.256Z,14.70
2018-11-12T13:32:29.661Z,13.50
2018-11-12T13:34:58.210Z,15.70
2018-11-12T13:37:26.704Z,14.53
2018-11-12T13:39:55.144Z,16.17
2018-11-12T13:42:23.573Z,16.30
2018-11-12T13:44:51.981Z,17.00
2018-11-12T13:47:20.378Z,13.30
2018-11-12T13:49:48.777Z,15.23
2018-11-12T13:52:17.187Z,12.90
2018-11-12T13:54:45.614Z,12.30
2018-11-12T13:57:14.009Z,15.00
2018-11-12T13:59:42.420Z,21.03
2018-11-12T14:02:10.825Z,14.20
2018-11-12T14:04:39.240Z,13.67
2018-11-12T14:07:07.627Z,13.20
2018-11-12T14:09:36.069Z,14.33
2018-11-12T14:12:05.006Z,12.20
2018-11-12T14:14:33.393Z,12.07
2018-11-12T14:17:01.816Z,11.90
2018-11-12T14:19:30.314Z,12.93
2018-11-12T14:21:59.492Z,12.23
2018-11-12T14:24:28.084Z,12.70
2018-11-12T14:26:56.650Z,12.37
2018-11-12T14:29:25.107Z,14.10
2018-11-12T14:31:53.507Z,13.60
2018-11-12T14:34:21.926Z,13.40
2018-11-12T14:36:50.379Z,12.83
2018-11-12T14:39:25.494Z,14.47
2018-11-12T14:41:53.906Z,12.97
2018-11-12T14:44:22.338Z,11.40
2018-11-12T14:46:50.809Z,11.50
2018-11-12T14:49:19.329Z,14.37
2018-11-12T14:51:47.745Z,10.33
2018-11-12T14:54:16.201Z,11.90
2018-11-12T14:56:46.630Z,11.33
2018-11-12T14:59:15.077Z,11.70
2018-11-12T15:01:43.604Z,15.27
2018-11-12T15:04:11.965Z,13.67
2018-11-12T15:06:40.457Z,14.03
2018-11-12T15:09:10.454Z,15.57
2018-11-12T15:11:38.972Z,12.77
2018-11-12T15:14:08.021Z,14.63
2018-11-12T15:16:36.472Z,12.53
2018-11-12T15:19:05.536Z,12.67
2018-11-12T15:21:34.047Z,13.53
2018-11-12T15:24:02.473Z,14.17
2018-11-12T15:26:31.134Z,14.73
2018-11-12T15:29:00.269Z,13.37
2018-11-12T15:31:29.632Z,16.83
2018-11-12T15:33:58.286Z,14.27
2018-11-12T15:36:26.788Z,14.57
2018-11-12T15:38:55.386Z,14.97
2018-11-12T15:41:23.840Z,14.67
2018-11-12T15:43:52.267Z,13.83
2018-11-12T15:46:20.737Z,13.60
2018-11-12T15:48:49.217Z,14.83
2018-11-12T15:51:18.371Z,15.27
2018-11-12T15:53:46.817Z,15.00
2018-11-12T15:56:15.250Z,16.10
2018-11-12T15:58:43.644Z,16.23
2018-11-12T16:01:12.100Z,13.77
2018-11-12T16:03:40.599Z,16.93
2018-11-12T16:06:09.631Z,14.20
2018-11-12T16:08:37.989Z,16.30
2018-11-12T16:11:06.474Z,16.37
2018-11-12T16:13:35.081Z,15.70
2018-11-12T16:16:03.586Z,16.00
2018-11-12T16:18:32.061Z,23.23
2018-11-12T16:21:00.658Z,16.93
2018-11-12T16:23:29.113Z,18.00
2018-11-12T16:25:57.548Z,19.50
2018-11-12T16:28:26.030Z,20.53
2018-11-12T16:30:54.609Z,23.57
2018-11-12T16:33:23.081Z,20.93
2018-11-12T16:35:51.537Z,22.80
2018-11-12T16:38:20.069Z,24.70
2018-11-12T16:40:48.525Z,26.47
2018-11-12T16:43:17.025Z,27.13
2018-11-12T16:45:45.507Z,27.90
2018-11-12T16:48:13.944Z,28.30
2018-11-12T16:50:42.474Z,34.20
2018-11-12T16:53:10.909Z,31.97
2018-11-12T16:55:39.472Z,34.83
2018-11-12T16:58:07.946Z,33.03
2018-11-12T17:00:36.408Z,28.60
2018-11-12T17:03:05.240Z,29.57
2018-11-12T17:05:33.760Z,31.40
2018-11-12T17:08:02.289Z,39.77
2018-11-12T17:10:31.633Z,37.77
2018-11-12T17:13:00.060Z,37.90
2018-11-12T17:15:28.502Z,35.33
2018-11-12T17:17:56.944Z,41.27
2018-11-12T17:20:25.409Z,33.80
2018-11-12T17:22:54.002Z,32.83
2018-11-12T17:25:22.473Z,38.93
2018-11-12T17:27:50.931Z,37.73
2018-11-12T17:30:20.816Z,33.70
2018-11-12T17:32:49.823Z,39.00
2018-11-12T17:35:19.421Z,49.07
2018-11-12T17:37:47.985Z,50.13
2018-11-12T17:40:18.809Z,42.23
2018-11-12T17:42:48.330Z,41.70
2018-11-12T17:45:18.159Z,38.03
2018-11-12T17:47:47.933Z,38.00
2018-11-12T17:50:16.381Z,34.30
2018-11-12T17:52:44.841Z,35.27
2018-11-12T17:55:13.685Z,35.80
2018-11-12T17:57:42.175Z,41.83
2018-11-12T18:00:17.197Z,36.83
2018-11-12T18:02:45.997Z,37.53
2018-11-12T18:05:14.481Z,37.27
2018-11-12T18:07:43.632Z,39.93
2018-11-12T18:10:13.088Z,38.07
2018-11-12T18:12:41.658Z,40.77
2018-11-12T18:15:12.722Z,36.00
2018-11-12T18:17:41.540Z,42.93
2018-11-12T18:20:12.310Z,39.30
2018-11-12T18:22:41.223Z,45.50
2018-11-12T18:25:10.403Z,45.70
2018-11-12T18:27:39.197Z,47.93
2018-11-12T18:30:14.906Z,47.70
2018-11-12T18:32:44.223Z,44.53
2018-11-12T18:35:12.689Z,41.10
2018-11-12T18:37:41.211Z,42.60
2018-11-12T18:40:11.798Z,43.37
2018-11-12T18:42:40.423Z,50.23
2018-11-12T18:45:13.605Z,42.63
2018-11-12T18:47:42.369Z,38.13
2018-11-12T18:50:16.536Z,44.17
2018-11-12T18:52:45.474Z,46.97
2018-11-12T18:55:13.895Z,43.77
2018-11-12T18:57:43.170Z,42.87
2018-11-12T19:00:14.301Z,38.70
2018-11-12T19:02:42.863Z,38.27
2018-11-12T19:05:16.722Z,41.07
2018-11-12T19:07:47.121Z,71.43
2018-11-12T19:10:17.241Z,59.13
2018-11-12T19:12:46.466Z,51.70
2018-11-12T19:15:16.333Z,47.20
2018-11-12T19:17:45.985Z,48.50
2018-11-12T19:20:15.497Z,47.30
2018-11-12T19:22:44.054Z,47.80
2018-11-12T19:25:13.439Z,46.40
2018-11-12T19:27:42.460Z,56.27
2018-11-12T19:30:12.787Z,62.87
2018-11-12T19:32:41.372Z,51.03
2018-11-12T19:35:11.379Z,56.10
2018-11-12T19:37:39.802Z,54.07
2018-11-12T19:40:11.160Z,51.77
2018-11-12T19:42:39.655Z,54.17
2018-11-12T19:45:10.038Z,57.73
2018-11-12T19:47:38.538Z,55.93
2018-11-12T19:50:09.192Z,53.63
2018-11-12T19:52:38.729Z,51.20
2018-11-12T19:55:07.649Z,51.53
2018-11-12T19:57:36.062Z,50.90
2018-11-12T20:00:05.836Z,57.60
2018-11-12T20:02:34.956Z,51.23
2018-11-12T20:05:03.426Z,51.87
2018-11-12T20:07:32.789Z,53.70
2018-11-12T20:10:01.665Z,52.67
2018-11-12T20:12:30.356Z,55.20
2018-11-12T20:14:58.809Z,59.87
2018-11-12T20:17:27.262Z,51.27
2018-11-12T20:19:55.811Z,51.23
2018-11-12T20:22:24.287Z,49.27
2018-11-12T20:24:52.798Z,47.63
2018-11-12T20:27:21.203Z,52.77
2018-11-12T20:29:49.672Z,49.23
2018-11-12T20:32:18.161Z,52.13
2018-11-12T20:34:46.606Z,49.60
2018-11-12T20:37:15.046Z,56.10
2018-11-12T20:39:43.590Z,49.90
2018-11-12T20:42:12.106Z,45.33
2018-11-12T20:44:40.541Z,50.17
2018-11-12T20:47:09.010Z,53.30
2018-11-12T20:49:37.522Z,52.70
2018-11-12T20:52:06.325Z,55.20
2018-11-12T20:54:35.440Z,51.80
2018-11-12T20:57:04.225Z,51.50
2018-11-12T20:59:33.029Z,51.03
2018-11-12T21:02:01.592Z,46.17
2018-11-12T21:04:30.550Z,49.80
2018-11-12T21:06:59.007Z,50.67
2018-11-12T21:09:27.456Z,51.73
2018-11-12T21:11:55.881Z,54.20
2018-11-12T21:14:24.779Z,53.40
2018-11-12T21:16:53.230Z,55.23
2018-11-12T21:19:21.689Z,60.50
2018-11-12T21:21:50.211Z,50.43
2018-11-12T21:24:18.632Z,62.47
2018-11-12T21:26:47.233Z,54.07
2018-11-12T21:29:15.641Z,52.97
2018-11-12T21:31:44.186Z,53.10
2018-11-12T21:34:12.606Z,52.40
2018-11-12T21:36:41.066Z,57.60
2018-11-12T21:39:12.076Z,49.90
2018-11-12T21:41:41.286Z,59.83
2018-11-12T21:44:09.913Z,48.20
2018-11-12T21:46:38.393Z,47.30
2018-11-12T21:49:07.330Z,48.70
2018-11-12T21:51:35.788Z,47.80
2018-11-12T21:54:04.289Z,54.63
2018-11-12T21:56:32.707Z,48.87
2018-11-12T21:59:01.161Z,54.30
2018-11-12T22:01:29.581Z,60.80
2018-11-12T22:03:58.008Z,49.63
2018-11-12T22:06:26.480Z,54.73
2018-11-12T22:08:54.968Z,55.70
2018-11-12T22:11:23.423Z,53.13
2018-11-12T22:13:51.838Z,45.63
2018-11-12T22:16:20.372Z,53.67
2018-11-12T22:18:48.817Z,47.63
2018-11-12T22:21:17.232Z,54.37
2018-11-12T22:23:46.311Z,50.27
2018-11-12T22:26:15.308Z,52.33
2018-11-12T22:28:43.733Z,50.23
2018-11-12T22:31:12.211Z,57.50
2018-11-12T22:33:40.657Z,49.90
2018-11-12T22:36:09.078Z,50.03
2018-11-12T22:38:37.490Z,56.73
2018-11-12T22:41:05.896Z,50.83
2018-11-12T22:43:34.316Z,51.27
2018-11-12T22:46:02.796Z,50.93
2018-11-12T22:48:31.237Z,51.33
2018-11-12T22:50:59.736Z,47.70
2018-11-12T22:53:28.164Z,53.03
2018-11-12T22:55:56.584Z,51.97
2018-11-12T22:58:25.055Z,49.90
2018-11-12T23:00:53.452Z,48.20
2018-11-12T23:03:21.931Z,44.20
2018-11-12T23:05:54.575Z,47.70
2018-11-12T23:08:23.007Z,47.80
2018-11-12T23:10:51.473Z,49.27
2018-11-12T23:13:20.009Z,41.33
2018-11-12T23:15:48.465Z,39.67
2018-11-12T23:18:16.860Z,40.10
2018-11-12T23:20:45.715Z,37.70
2018-11-12T23:23:14.194Z,32.67
2018-11-12T23:25:42.665Z,32.30
2018-11-12T23:28:11.112Z,33.07
2018-11-12T23:30:39.596Z,33.20
2018-11-12T23:33:08.010Z,30.90
2018-11-12T23:35:36.467Z,28.63
2018-11-12T23:38:04.921Z,29.90
2018-11-12T23:40:33.341Z,27.70
2018-11-12T23:43:01.825Z,29.10
2018-11-12T23:45:31.020Z,26.83
2018-11-12T23:47:59.469Z,27.20
2018-11-12T23:50:27.897Z,28.00
2018-11-12T23:52:56.304Z,23.23
2018-11-12T23:55:24.713Z,24.57
2018-11-12T23:57:53.117Z,24.30
